WetterOnline ( https://www.wetteronline.de )

Wetter aktuell Kappeln

Aktuelles Wetter: Schönhagen (Ostseebad) (2m)

6-stündlich | Neueste Meldungen
Ortszeit Temperatur Wetter
Mo, 09.12. 19:00 5.6° C wolkenlos
Mo, 09.12. 13:00 6.8° C leichter Regen
Mo, 09.12. 7:00 6.0° C wolkig
Mo, 09.12. 1:00 6.5° C Sprühregen
So, 08.12. 19:00 7.7° C leichter Regen
So, 08.12. 13:00 9.3° C Sprühregen
So, 08.12. 7:00 8.8° C bedeckt
So, 08.12. 1:00 8.4° C bewölkt
Ortszeit Temperatur Wetter
Mo, 09.12. 19:00 5.6° C wolkenlos
Mo, 09.12. 18:50 5.6° C wolkenlos
Mo, 09.12. 18:40 5.7° C fast wolkenlos
Mo, 09.12. 18:30 5.4° C leicht bewölkt
Mo, 09.12. 18:20 5.4° C leicht bewölkt
Mo, 09.12. 18:10 5.5° C fast wolkenlos
Mo, 09.12. 18:00 5.7° C wolkig
Mo, 09.12. 17:30 6.1° C bedeckt
Mo, 09.12. 17:00 5.9° C wolkig
Mo, 09.12. 16:30 5.9° C bewölkt
Mo, 09.12. 16:00 6.2° C bewölkt
Ortszeit Relative Feuchte Sichtweite
Mo, 09.12. 19:00 73% 25 km
Mo, 09.12. 13:00 86% 35 km
Mo, 09.12. 7:00 82% 35 km
Mo, 09.12. 1:00 81% 29 km
So, 08.12. 19:00 81% 16 km
So, 08.12. 13:00 92% 4.0 km
So, 08.12. 7:00 79% 35 km
So, 08.12. 1:00 88% 28 km
Ortszeit Relative Feuchte Sichtweite
Mo, 09.12. 19:00 73% 25 km
Mo, 09.12. 18:50 73% -
Mo, 09.12. 18:40 72% -
Mo, 09.12. 18:30 75% 25 km
Mo, 09.12. 18:20 75% -
Mo, 09.12. 18:10 74% -
Mo, 09.12. 18:00 73% 30 km
Mo, 09.12. 17:30 75% 27 km
Mo, 09.12. 17:00 83% 30 km
Mo, 09.12. 16:30 83% 45 km
Mo, 09.12. 16:00 85% 45 km
Ortszeit Niederschlagsmenge Niederschlagsart
Mo, 09.12. 19:00 0.6 l/m2 in 12 Std. Regen
Mo, 09.12. 13:00 0.2 l/m2 in 6 Std. Regen
Mo, 09.12. 7:00 2 l/m2 in 12 Std. Regen
Mo, 09.12. 1:00 0.8 l/m2 in 6 Std. Regen
So, 08.12. 19:00 4 l/m2 in 12 Std. Regen
So, 08.12. 13:00 3 l/m2 in 6 Std. Regen
So, 08.12. 7:00 0.2 l/m2 in 12 Std. Regen
So, 08.12. 1:00 0.2 l/m2 in 6 Std. Regen
Ortszeit Niederschlagsmenge Niederschlagsart
Mo, 09.12. 19:00 0.1 l/m2 in 1 Std. Regen
Mo, 09.12. 18:50 keine Meldung -
Mo, 09.12. 18:40 keine Meldung -
Mo, 09.12. 18:30 0.0 l/m2 in 1 Std. -
Mo, 09.12. 18:20 keine Meldung -
Mo, 09.12. 18:10 keine Meldung -
Mo, 09.12. 18:00 0.0 l/m2 in 1 Std. -
Mo, 09.12. 17:30 0.0 l/m2 in 1 Std. -
Mo, 09.12. 17:00 0.0 l/m2 in 1 Std. -
Mo, 09.12. 16:30 0.0 l/m2 in 1 Std. -
Mo, 09.12. 16:00 0.1 l/m2 in 1 Std. Regen
Ortszeit Stärke Spitze Richtung
km/h Bft. km/h Grad Sektor
Mo, 09.12. 19:00 26 4 44 280° W
Mo, 09.12. 13:00 30 5 56 240° SW
Mo, 09.12. 7:00 31 5 57 220° SW
Mo, 09.12. 1:00 35 5 65 220° SW
So, 08.12. 19:00 36 5 79 240° SW
So, 08.12. 13:00 47 6 90 230° SW
So, 08.12. 7:00 41 6 70 220° SW
So, 08.12. 1:00 31 5 50 230° SW
Ortszeit Stärke Spitze Richtung
km/h Bft. km/h Grad Sektor
Mo, 09.12. 19:00 26 4 44 280° W
Mo, 09.12. 18:50 26 4 - 280° W
Mo, 09.12. 18:40 29 5 - 290° W
Mo, 09.12. 18:30 22 4 36 280° W
Mo, 09.12. 18:20 22 4 - 280° W
Mo, 09.12. 18:10 22 4 - 280° W
Mo, 09.12. 18:00 25 4 40 290° W
Mo, 09.12. 17:30 22 4 36 290° W
Mo, 09.12. 17:00 22 4 29 270° W
Mo, 09.12. 16:30 14 3 25 270° W
Mo, 09.12. 16:00 14 3 29 280° W
Ortszeit Untergrenze Bedeckung Gattung
total tief tief mittel hoch
Mo, 09.12. 19:00 - 0/8 0/8 - - -
Mo, 09.12. 13:00 540 m 7/8 7/8 - - -
Mo, 09.12. 7:00 540 m 6/8 6/8 - - -
Mo, 09.12. 1:00 840 m 7/8 2/8 - - -
So, 08.12. 19:00 750 m 5/8 5/8 - - -
So, 08.12. 13:00 300 m 7/8 7/8 - - -
So, 08.12. 7:00 510 m 8/8 8/8 - - -
So, 08.12. 1:00 390 m 8/8 7/8 - - -
Ortszeit Bedeckungsgrad in Achtel und Wolkenuntergrenze
Mo, 09.12. 19:00 keine Wolken
Mo, 09.12. 18:50 keine Wolken
Mo, 09.12. 18:40 1(6000m)
Mo, 09.12. 18:30 1(1440m) 3(6000m)
Mo, 09.12. 18:20 1(1440m) 3(6000m)
Mo, 09.12. 18:10 1(4200m)
Mo, 09.12. 18:00 6(4200m) 6(5100m) 6(5700m)
Mo, 09.12. 17:30 3(4200m) 7(5400m) 8(6000m)
Mo, 09.12. 17:00 3(2700m) 8(5100m) 8(5700m)
Mo, 09.12. 16:30 2(2100m) 7(2700m) 8(5700m)
Mo, 09.12. 16:00 1(1500m) 7(2100m) 7(2400m)
Ortszeit Luftdruck NN (hPa) Tendenz (hPa in 3 Std.)
Mo, 09.12. 19:00 1001 + 4,4
Mo, 09.12. 13:00 993 + 1,2
Mo, 09.12. 7:00 990 + 0,4
Mo, 09.12. 1:00 990 - 0,4
So, 08.12. 19:00 991 + 0,7
So, 08.12. 13:00 990 - 2,6
So, 08.12. 7:00 996 - 4,2
So, 08.12. 1:00 1004 - 1,9
Ortszeit Luftdruck NN (hPa) Tendenz (hPa in 3 Std.)
Mo, 09.12. 19:00 1001 + 4,4
Mo, 09.12. 18:50 1001 keine Meldung
Mo, 09.12. 18:40 1000 keine Meldung
Mo, 09.12. 18:30 1000 + 4,2
Mo, 09.12. 18:20 1000 keine Meldung
Mo, 09.12. 18:10 1000 keine Meldung
Mo, 09.12. 18:00 999 + 4,3
Mo, 09.12. 17:30 999 + 4,2
Mo, 09.12. 17:00 998 + 3,9
Mo, 09.12. 16:30 997 + 3,8
Mo, 09.12. 16:00 996 + 3,5
Ortszeit Schneehöhe (cm)
Mo, 09.12. 19:00 0
Mo, 09.12. 13:00 0
Mo, 09.12. 7:00 0
Mo, 09.12. 1:00 0
So, 08.12. 19:00 0
So, 08.12. 13:00 0
So, 08.12. 7:00 0
So, 08.12. 1:00 0
Ortszeit Schneehöhe (cm)
Mo, 09.12. 19:00 0
Mo, 09.12. 18:50 0
Mo, 09.12. 18:40 0
Mo, 09.12. 18:30 0
Mo, 09.12. 18:20 0
Mo, 09.12. 18:10 0
Mo, 09.12. 18:00 0
Mo, 09.12. 17:30 0
Mo, 09.12. 17:00 0
Mo, 09.12. 16:30 0
Mo, 09.12. 16:00 0
Link zu dieser Seite / Seite empfehlen

Das Wetter in ...